Terminal Aerodrome Forecast
Issued by NWS Quad Cities IA IL

Home | Current Version | Previous Version | Text Only | Print | Product List | Glossary Off
Versions: 1 2 3 4 5 6 7 8 9 10 11 12 13 14 15 16 17 18 19 20 21 22 23 24 25 26 27 28 29 30 31 32 33

000
FTUS43 KDVN 291130
TAFMLI
TAF
KMLI 291130Z 2912/3012 06013KT P6SM BKN015 OVC030
     FM291700 04016G25KT 3SM RA BR OVC012
      TEMPO 2919/2922 1 1/2SM SHRA BR
     FM300000 05017G26KT P6SM VCSH OVC015
     FM300600 07019KT 4SM -DZ BR OVC008
     FM300900 05016KT 4SM -RA BR OVC007=

USA.gov is the U.S. government's official web portal to all federal, state and local government web resources and services.